sensor_id;sensor_type;location;lat;lon;timestamp;P1;durP1;ratioP1;P2;durP2;ratioP2
40489;SDS011;26196;52.302;10.572;2023-03-03T00:03:59;4.40;;;2.80;;
40489;SDS011;26196;52.302;10.572;2023-03-03T00:07:59;4.65;;;3.08;;
40489;SDS011;26196;52.302;10.572;2023-03-03T00:16:28;4.28;;;2.80;;
40489;SDS011;26196;52.302;10.572;2023-03-03T00:20:35;3.63;;;2.13;;
40489;SDS011;26196;52.302;10.572;2023-03-03T00:24:44;3.08;;;2.00;;
40489;SDS011;26196;52.302;10.572;2023-03-03T00:28:45;3.42;;;2.38;;
40489;SDS011;26196;52.302;10.572;2023-03-03T00:32:53;3.58;;;2.78;;
40489;SDS011;26196;52.302;10.572;2023-03-03T00:36:55;3.83;;;2.55;;
40489;SDS011;26196;52.302;10.572;2023-03-03T00:40:59;4.82;;;3.20;;
40489;SDS011;26196;52.302;10.572;2023-03-03T00:45:00;4.07;;;3.00;;
40489;SDS011;26196;52.302;10.572;2023-03-03T00:49:00;5.05;;;3.08;;
40489;SDS011;26196;52.302;10.572;2023-03-03T00:53:05;5.30;;;3.03;;
40489;SDS011;26196;52.302;10.572;2023-03-03T00:57:10;4.80;;;3.30;;
40489;SDS011;26196;52.302;10.572;2023-03-03T01:01:11;4.80;;;2.85;;
40489;SDS011;26196;52.302;10.572;2023-03-03T01:05:13;4.68;;;2.95;;
40489;SDS011;26196;52.302;10.572;2023-03-03T01:09:16;4.78;;;2.90;;
40489;SDS011;26196;52.302;10.572;2023-03-03T01:13:17;5.07;;;3.22;;
40489;SDS011;26196;52.302;10.572;2023-03-03T01:21:29;5.97;;;3.22;;
40489;SDS011;26196;52.302;10.572;2023-03-03T01:25:29;4.32;;;3.40;;
40489;SDS011;26196;52.302;10.572;2023-03-03T01:29:30;4.82;;;2.90;;
40489;SDS011;26196;52.302;10.572;2023-03-03T01:33:31;4.53;;;2.95;;
40489;SDS011;26196;52.302;10.572;2023-03-03T01:37:34;6.38;;;3.85;;
40489;SDS011;26196;52.302;10.572;2023-03-03T01:41:35;5.63;;;3.72;;
40489;SDS011;26196;52.302;10.572;2023-03-03T01:45:41;7.75;;;4.35;;
40489;SDS011;26196;52.302;10.572;2023-03-03T01:50:05;6.88;;;4.22;;
40489;SDS011;26196;52.302;10.572;2023-03-03T01:54:13;6.03;;;4.10;;
40489;SDS011;26196;52.302;10.572;2023-03-03T01:59:22;6.55;;;3.88;;
40489;SDS011;26196;52.302;10.572;2023-03-03T02:03:13;6.68;;;4.05;;
40489;SDS011;26196;52.302;10.572;2023-03-03T02:07:13;7.75;;;4.15;;
40489;SDS011;26196;52.302;10.572;2023-03-03T02:11:16;7.00;;;3.75;;
40489;SDS011;26196;52.302;10.572;2023-03-03T02:32:04;5.60;;;3.00;;
40489;SDS011;26196;52.302;10.572;2023-03-03T02:36:04;4.53;;;3.28;;
40489;SDS011;26196;52.302;10.572;2023-03-03T02:40:05;5.50;;;3.40;;
40489;SDS011;26196;52.302;10.572;2023-03-03T02:48:27;6.03;;;3.47;;
40489;SDS011;26196;52.302;10.572;2023-03-03T02:56:32;5.85;;;3.33;;
40489;SDS011;26196;52.302;10.572;2023-03-03T03:00:35;5.05;;;3.50;;
40489;SDS011;26196;52.302;10.572;2023-03-03T03:04:36;7.63;;;3.58;;
40489;SDS011;26196;52.302;10.572;2023-03-03T03:08:44;5.40;;;3.35;;
40489;SDS011;26196;52.302;10.572;2023-03-03T03:12:44;5.32;;;2.90;;
40489;SDS011;26196;52.302;10.572;2023-03-03T03:16:45;6.90;;;4.25;;
40489;SDS011;26196;52.302;10.572;2023-03-03T03:20:45;7.15;;;4.18;;
40489;SDS011;26196;52.302;10.572;2023-03-03T03:24:46;6.50;;;3.38;;
40489;SDS011;26196;52.302;10.572;2023-03-03T03:28:46;7.75;;;3.88;;
40489;SDS011;26196;52.302;10.572;2023-03-03T03:33:06;5.35;;;3.00;;
40489;SDS011;26196;52.302;10.572;2023-03-03T03:37:07;6.90;;;3.85;;
40489;SDS011;26196;52.302;10.572;2023-03-03T03:41:09;8.57;;;3.72;;
40489;SDS011;26196;52.302;10.572;2023-03-03T03:45:10;6.40;;;4.03;;
40489;SDS011;26196;52.302;10.572;2023-03-03T03:49:14;6.03;;;3.90;;
40489;SDS011;26196;52.302;10.572;2023-03-03T03:53:14;7.60;;;4.38;;
40489;SDS011;26196;52.302;10.572;2023-03-03T03:57:16;7.85;;;4.28;;
40489;SDS011;26196;52.302;10.572;2023-03-03T04:01:16;9.60;;;5.10;;
40489;SDS011;26196;52.302;10.572;2023-03-03T04:05:17;8.20;;;4.57;;
40489;SDS011;26196;52.302;10.572;2023-03-03T04:09:17;9.70;;;5.32;;
40489;SDS011;26196;52.302;10.572;2023-03-03T04:13:18;7.82;;;4.30;;
40489;SDS011;26196;52.302;10.572;2023-03-03T04:17:19;7.32;;;4.85;;
40489;SDS011;26196;52.302;10.572;2023-03-03T04:21:21;6.25;;;3.55;;
40489;SDS011;26196;52.302;10.572;2023-03-03T04:25:22;7.10;;;4.40;;
40489;SDS011;26196;52.302;10.572;2023-03-03T04:29:22;9.10;;;5.32;;
40489;SDS011;26196;52.302;10.572;2023-03-03T04:33:22;8.50;;;4.97;;
40489;SDS011;26196;52.302;10.572;2023-03-03T04:37:23;7.65;;;3.95;;
40489;SDS011;26196;52.302;10.572;2023-03-03T04:41:23;8.05;;;3.45;;
40489;SDS011;26196;52.302;10.572;2023-03-03T04:45:24;7.43;;;4.43;;
40489;SDS011;26196;52.302;10.572;2023-03-03T04:49:30;11.50;;;5.63;;
40489;SDS011;26196;52.302;10.572;2023-03-03T04:53:30;9.90;;;5.35;;
40489;SDS011;26196;52.302;10.572;2023-03-03T04:57:31;12.30;;;4.97;;
40489;SDS011;26196;52.302;10.572;2023-03-03T05:01:31;9.00;;;5.03;;
40489;SDS011;26196;52.302;10.572;2023-03-03T05:05:31;9.45;;;4.60;;
40489;SDS011;26196;52.302;10.572;2023-03-03T05:09:32;10.55;;;5.28;;
40489;SDS011;26196;52.302;10.572;2023-03-03T05:13:32;10.98;;;5.45;;
40489;SDS011;26196;52.302;10.572;2023-03-03T05:17:33;10.77;;;5.93;;
40489;SDS011;26196;52.302;10.572;2023-03-03T05:25:41;12.07;;;5.50;;
40489;SDS011;26196;52.302;10.572;2023-03-03T05:29:41;8.73;;;5.03;;
40489;SDS011;26196;52.302;10.572;2023-03-03T05:33:42;12.18;;;5.38;;
40489;SDS011;26196;52.302;10.572;2023-03-03T05:37:42;9.48;;;5.45;;
40489;SDS011;26196;52.302;10.572;2023-03-03T05:45:57;15.77;;;6.25;;
40489;SDS011;26196;52.302;10.572;2023-03-03T05:49:58;11.93;;;7.57;;
40489;SDS011;26196;52.302;10.572;2023-03-03T05:54:00;9.45;;;5.80;;
40489;SDS011;26196;52.302;10.572;2023-03-03T05:58:00;11.60;;;5.50;;
40489;SDS011;26196;52.302;10.572;2023-03-03T06:02:02;9.63;;;5.15;;
40489;SDS011;26196;52.302;10.572;2023-03-03T06:06:03;12.65;;;6.13;;
40489;SDS011;26196;52.302;10.572;2023-03-03T06:10:03;10.13;;;5.47;;
40489;SDS011;26196;52.302;10.572;2023-03-03T06:14:04;12.05;;;5.72;;
40489;SDS011;26196;52.302;10.572;2023-03-03T06:18:05;11.15;;;5.82;;
40489;SDS011;26196;52.302;10.572;2023-03-03T06:22:05;11.63;;;6.03;;
40489;SDS011;26196;52.302;10.572;2023-03-03T06:26:06;9.65;;;4.40;;
40489;SDS011;26196;52.302;10.572;2023-03-03T06:30:07;10.20;;;5.28;;
40489;SDS011;26196;52.302;10.572;2023-03-03T06:34:07;9.93;;;5.75;;
40489;SDS011;26196;52.302;10.572;2023-03-03T06:38:08;11.20;;;5.40;;
40489;SDS011;26196;52.302;10.572;2023-03-03T06:42:08;10.70;;;4.97;;
40489;SDS011;26196;52.302;10.572;2023-03-03T06:46:08;10.27;;;5.30;;
40489;SDS011;26196;52.302;10.572;2023-03-03T06:50:09;12.40;;;5.63;;
40489;SDS011;26196;52.302;10.572;2023-03-03T06:54:12;10.90;;;5.75;;
40489;SDS011;26196;52.302;10.572;2023-03-03T06:58:15;9.93;;;5.75;;
40489;SDS011;26196;52.302;10.572;2023-03-03T07:02:17;10.45;;;5.88;;
40489;SDS011;26196;52.302;10.572;2023-03-03T07:14:22;10.82;;;5.80;;
40489;SDS011;26196;52.302;10.572;2023-03-03T07:18:34;9.85;;;6.35;;
40489;SDS011;26196;52.302;10.572;2023-03-03T07:23:29;10.38;;;5.60;;
40489;SDS011;26196;52.302;10.572;2023-03-03T07:27:41;12.65;;;6.00;;
40489;SDS011;26196;52.302;10.572;2023-03-03T07:31:41;12.00;;;6.60;;
40489;SDS011;26196;52.302;10.572;2023-03-03T07:35:46;9.93;;;5.43;;
40489;SDS011;26196;52.302;10.572;2023-03-03T07:39:49;12.00;;;6.35;;
40489;SDS011;26196;52.302;10.572;2023-03-03T07:43:54;9.70;;;5.55;;
40489;SDS011;26196;52.302;10.572;2023-03-03T07:48:18;10.15;;;5.15;;
40489;SDS011;26196;52.302;10.572;2023-03-03T07:52:30;11.00;;;6.13;;
40489;SDS011;26196;52.302;10.572;2023-03-03T07:56:41;11.45;;;6.18;;
40489;SDS011;26196;52.302;10.572;2023-03-03T08:04:43;11.13;;;5.80;;
40489;SDS011;26196;52.302;10.572;2023-03-03T08:08:49;10.85;;;6.20;;
40489;SDS011;26196;52.302;10.572;2023-03-03T08:12:50;10.35;;;5.38;;
40489;SDS011;26196;52.302;10.572;2023-03-03T08:16:51;13.05;;;6.38;;
40489;SDS011;26196;52.302;10.572;2023-03-03T08:20:57;10.20;;;5.85;;
40489;SDS011;26196;52.302;10.572;2023-03-03T08:24:59;10.82;;;5.32;;
40489;SDS011;26196;52.302;10.572;2023-03-03T08:29:00;9.10;;;5.53;;
40489;SDS011;26196;52.302;10.572;2023-03-03T08:33:00;10.65;;;5.68;;
40489;SDS011;26196;52.302;10.572;2023-03-03T08:37:01;11.15;;;6.10;;
40489;SDS011;26196;52.302;10.572;2023-03-03T08:41:01;10.75;;;6.20;;
40489;SDS011;26196;52.302;10.572;2023-03-03T08:45:02;12.52;;;6.95;;
40489;SDS011;26196;52.302;10.572;2023-03-03T08:49:02;12.20;;;6.85;;
40489;SDS011;26196;52.302;10.572;2023-03-03T08:53:03;10.15;;;6.13;;
40489;SDS011;26196;52.302;10.572;2023-03-03T08:57:04;12.70;;;7.07;;
40489;SDS011;26196;52.302;10.572;2023-03-03T09:01:04;13.07;;;6.47;;
40489;SDS011;26196;52.302;10.572;2023-03-03T09:05:04;12.13;;;6.72;;
40489;SDS011;26196;52.302;10.572;2023-03-03T09:09:06;11.25;;;5.93;;
40489;SDS011;26196;52.302;10.572;2023-03-03T09:13:10;10.85;;;6.38;;
40489;SDS011;26196;52.302;10.572;2023-03-03T09:17:33;10.90;;;6.80;;
40489;SDS011;26196;52.302;10.572;2023-03-03T09:21:34;13.45;;;7.13;;
40489;SDS011;26196;52.302;10.572;2023-03-03T09:25:35;11.98;;;6.40;;
40489;SDS011;26196;52.302;10.572;2023-03-03T09:29:36;8.95;;;5.63;;
40489;SDS011;26196;52.302;10.572;2023-03-03T09:33:41;10.30;;;5.97;;
40489;SDS011;26196;52.302;10.572;2023-03-03T09:37:43;9.77;;;5.75;;
40489;SDS011;26196;52.302;10.572;2023-03-03T09:54:41;8.45;;;4.45;;
40489;SDS011;26196;52.302;10.572;2023-03-03T10:03:10;9.40;;;4.90;;
40489;SDS011;26196;52.302;10.572;2023-03-03T10:07:32;10.00;;;4.85;;
40489;SDS011;26196;52.302;10.572;2023-03-03T10:33:38;11.25;;;5.95;;
40489;SDS011;26196;52.302;10.572;2023-03-03T10:41:57;9.35;;;4.97;;
40489;SDS011;26196;52.302;10.572;2023-03-03T10:59:18;11.75;;;6.43;;
40489;SDS011;26196;52.302;10.572;2023-03-03T11:16:39;10.25;;;5.50;;
40489;SDS011;26196;52.302;10.572;2023-03-03T11:37:38;8.90;;;5.38;;
40489;SDS011;26196;52.302;10.572;2023-03-03T11:41:56;10.90;;;6.45;;
40489;SDS011;26196;52.302;10.572;2023-03-03T11:46:17;11.30;;;6.47;;
40489;SDS011;26196;52.302;10.572;2023-03-03T11:50:28;11.75;;;7.28;;
40489;SDS011;26196;52.302;10.572;2023-03-03T11:54:38;12.00;;;7.57;;
40489;SDS011;26196;52.302;10.572;2023-03-03T11:58:43;9.38;;;6.28;;
40489;SDS011;26196;52.302;10.572;2023-03-03T12:03:09;11.52;;;7.15;;
40489;SDS011;26196;52.302;10.572;2023-03-03T12:07:22;11.82;;;6.85;;
40489;SDS011;26196;52.302;10.572;2023-03-03T12:11:48;15.52;;;7.72;;
40489;SDS011;26196;52.302;10.572;2023-03-03T13:00:11;11.60;;;7.28;;
40489;SDS011;26196;52.302;10.572;2023-03-03T13:08:32;11.10;;;7.57;;
40489;SDS011;26196;52.302;10.572;2023-03-03T13:12:44;13.38;;;9.00;;
40489;SDS011;26196;52.302;10.572;2023-03-03T13:21:13;11.43;;;7.40;;
40489;SDS011;26196;52.302;10.572;2023-03-03T13:29:31;13.85;;;9.00;;
40489;SDS011;26196;52.302;10.572;2023-03-03T13:33:59;12.55;;;7.35;;
40489;SDS011;26196;52.302;10.572;2023-03-03T13:38:00;13.20;;;8.52;;
40489;SDS011;26196;52.302;10.572;2023-03-03T13:42:07;12.98;;;8.80;;
40489;SDS011;26196;52.302;10.572;2023-03-03T13:50:43;11.02;;;7.32;;
40489;SDS011;26196;52.302;10.572;2023-03-03T13:55:01;15.95;;;9.25;;
40489;SDS011;26196;52.302;10.572;2023-03-03T14:07:56;17.80;;;9.93;;
40489;SDS011;26196;52.302;10.572;2023-03-03T14:12:03;12.52;;;7.90;;
40489;SDS011;26196;52.302;10.572;2023-03-03T14:20:34;13.95;;;8.85;;
40489;SDS011;26196;52.302;10.572;2023-03-03T14:25:00;18.13;;;9.73;;
40489;SDS011;26196;52.302;10.572;2023-03-03T14:29:21;15.77;;;8.73;;
40489;SDS011;26196;52.302;10.572;2023-03-03T14:33:37;15.40;;;9.40;;
40489;SDS011;26196;52.302;10.572;2023-03-03T14:37:42;17.65;;;10.98;;
40489;SDS011;26196;52.302;10.572;2023-03-03T14:41:45;16.73;;;9.52;;
40489;SDS011;26196;52.302;10.572;2023-03-03T14:45:48;16.20;;;10.25;;
40489;SDS011;26196;52.302;10.572;2023-03-03T14:49:49;17.08;;;10.98;;
40489;SDS011;26196;52.302;10.572;2023-03-03T14:53:50;20.73;;;12.57;;
40489;SDS011;26196;52.302;10.572;2023-03-03T14:57:57;22.15;;;12.07;;
40489;SDS011;26196;52.302;10.572;2023-03-03T15:02:25;19.95;;;12.40;;
40489;SDS011;26196;52.302;10.572;2023-03-03T15:06:30;19.10;;;11.88;;
40489;SDS011;26196;52.302;10.572;2023-03-03T15:10:39;19.83;;;11.05;;
40489;SDS011;26196;52.302;10.572;2023-03-03T15:14:42;17.60;;;10.35;;
40489;SDS011;26196;52.302;10.572;2023-03-03T15:18:51;19.95;;;12.25;;
40489;SDS011;26196;52.302;10.572;2023-03-03T15:22:59;16.67;;;10.43;;
40489;SDS011;26196;52.302;10.572;2023-03-03T15:36:07;15.25;;;10.35;;
40489;SDS011;26196;52.302;10.572;2023-03-03T15:40:34;16.13;;;9.73;;
40489;SDS011;26196;52.302;10.572;2023-03-03T16:01:33;15.77;;;8.63;;
40489;SDS011;26196;52.302;10.572;2023-03-03T16:14:36;14.35;;;8.50;;
40489;SDS011;26196;52.302;10.572;2023-03-03T16:27:46;20.65;;;11.85;;
40489;SDS011;26196;52.302;10.572;2023-03-03T16:41:23;21.98;;;11.70;;
40489;SDS011;26196;52.302;10.572;2023-03-03T16:45:27;21.95;;;10.80;;
40489;SDS011;26196;52.302;10.572;2023-03-03T17:10:36;18.08;;;9.32;;
40489;SDS011;26196;52.302;10.572;2023-03-03T17:37:22;18.60;;;9.57;;
40489;SDS011;26196;52.302;10.572;2023-03-03T17:45:58;18.08;;;9.00;;
40489;SDS011;26196;52.302;10.572;2023-03-03T18:08:44;26.65;;;12.15;;
40489;SDS011;26196;52.302;10.572;2023-03-03T18:21:42;21.95;;;12.15;;
40489;SDS011;26196;52.302;10.572;2023-03-03T18:25:55;18.27;;;10.13;;
40489;SDS011;26196;52.302;10.572;2023-03-03T18:38:43;15.88;;;8.98;;
40489;SDS011;26196;52.302;10.572;2023-03-03T18:42:47;15.07;;;9.55;;
40489;SDS011;26196;52.302;10.572;2023-03-03T18:46:52;15.80;;;9.63;;
40489;SDS011;26196;52.302;10.572;2023-03-03T18:50:59;17.20;;;9.73;;
40489;SDS011;26196;52.302;10.572;2023-03-03T18:59:09;11.98;;;7.53;;
40489;SDS011;26196;52.302;10.572;2023-03-03T19:03:27;13.13;;;8.18;;
40489;SDS011;26196;52.302;10.572;2023-03-03T19:16:28;14.00;;;8.35;;
40489;SDS011;26196;52.302;10.572;2023-03-03T19:29:40;13.98;;;8.30;;
40489;SDS011;26196;52.302;10.572;2023-03-03T20:26:36;17.08;;;10.02;;
40489;SDS011;26196;52.302;10.572;2023-03-03T20:48:21;18.10;;;9.65;;
40489;SDS011;26196;52.302;10.572;2023-03-03T20:56:53;17.27;;;10.30;;
40489;SDS011;26196;52.302;10.572;2023-03-03T21:01:10;19.52;;;9.88;;
40489;SDS011;26196;52.302;10.572;2023-03-03T21:05:29;19.63;;;10.90;;
40489;SDS011;26196;52.302;10.572;2023-03-03T21:09:33;18.90;;;10.95;;
40489;SDS011;26196;52.302;10.572;2023-03-03T21:13:49;23.55;;;11.25;;
40489;SDS011;26196;52.302;10.572;2023-03-03T21:17:59;25.33;;;11.85;;
40489;SDS011;26196;52.302;10.572;2023-03-03T21:22:00;22.42;;;11.05;;
40489;SDS011;26196;52.302;10.572;2023-03-03T21:26:15;19.88;;;10.95;;
40489;SDS011;26196;52.302;10.572;2023-03-03T21:31:00;19.58;;;10.43;;
40489;SDS011;26196;52.302;10.572;2023-03-03T21:35:14;17.98;;;10.10;;
40489;SDS011;26196;52.302;10.572;2023-03-03T21:43:46;20.25;;;9.70;;
40489;SDS011;26196;52.302;10.572;2023-03-03T21:47:49;18.08;;;9.45;;
40489;SDS011;26196;52.302;10.572;2023-03-03T21:51:50;19.15;;;9.98;;
40489;SDS011;26196;52.302;10.572;2023-03-03T21:55:53;17.85;;;9.52;;
40489;SDS011;26196;52.302;10.572;2023-03-03T21:59:56;18.30;;;9.60;;
40489;SDS011;26196;52.302;10.572;2023-03-03T22:03:56;12.98;;;8.05;;
40489;SDS011;26196;52.302;10.572;2023-03-03T22:07:57;15.20;;;8.40;;
40489;SDS011;26196;52.302;10.572;2023-03-03T22:11:57;16.05;;;8.50;;
40489;SDS011;26196;52.302;10.572;2023-03-03T22:15:58;16.92;;;8.90;;
40489;SDS011;26196;52.302;10.572;2023-03-03T22:19:58;13.00;;;7.35;;
40489;SDS011;26196;52.302;10.572;2023-03-03T22:28:03;16.08;;;7.13;;
40489;SDS011;26196;52.302;10.572;2023-03-03T22:32:03;11.55;;;6.95;;
40489;SDS011;26196;52.302;10.572;2023-03-03T22:36:04;13.65;;;7.10;;
40489;SDS011;26196;52.302;10.572;2023-03-03T22:40:07;12.65;;;6.82;;
40489;SDS011;26196;52.302;10.572;2023-03-03T22:44:08;12.80;;;6.45;;
40489;SDS011;26196;52.302;10.572;2023-03-03T22:48:08;12.10;;;6.75;;
40489;SDS011;26196;52.302;10.572;2023-03-03T22:52:09;10.57;;;5.78;;
40489;SDS011;26196;52.302;10.572;2023-03-03T22:56:09;12.27;;;6.72;;
40489;SDS011;26196;52.302;10.572;2023-03-03T23:00:10;9.80;;;5.25;;
40489;SDS011;26196;52.302;10.572;2023-03-03T23:04:10;10.90;;;5.47;;
40489;SDS011;26196;52.302;10.572;2023-03-03T23:08:12;11.15;;;5.70;;
40489;SDS011;26196;52.302;10.572;2023-03-03T23:12:14;11.07;;;5.72;;
40489;SDS011;26196;52.302;10.572;2023-03-03T23:16:14;10.60;;;5.20;;
40489;SDS011;26196;52.302;10.572;2023-03-03T23:20:19;9.63;;;4.75;;
40489;SDS011;26196;52.302;10.572;2023-03-03T23:24:29;11.25;;;5.50;;
40489;SDS011;26196;52.302;10.572;2023-03-03T23:32:29;11.43;;;4.37;;
40489;SDS011;26196;52.302;10.572;2023-03-03T23:36:32;13.02;;;4.88;;
40489;SDS011;26196;52.302;10.572;2023-03-03T23:40:32;10.77;;;4.53;;
40489;SDS011;26196;52.302;10.572;2023-03-03T23:44:32;9.60;;;4.47;;
40489;SDS011;26196;52.302;10.572;2023-03-03T23:48:33;9.70;;;3.95;;
40489;SDS011;26196;52.302;10.572;2023-03-03T23:52:33;7.53;;;3.45;;
40489;SDS011;26196;52.302;10.572;2023-03-03T23:56:33;6.80;;;3.72;;
